Time;durP1;ratioP1;P1;durP2;ratioP2;P2;SDS_P1;SDS_P2;PMS_P1;PMS_P2;Temp;Humidity;BMP_temperature;BMP_pressure;BME280_temperature;BME280_humidity;BME280_pressure;Samples;Min_cycle;Max_cycle;Signal;HPM_P1;HPM_P2
2023/11/22 00:00:15;;;;;;;;;;;;;;;;;;4961437;28;20285;-79
2023/11/22 00:02:47;;;;;;;;;;;;;;;;;;4959039;28;20329;-79
2023/11/22 00:05:13;;;;;;;;;;;;;;;;;;4958781;28;19915;-79
2023/11/22 00:07:38;;;;;;;;;;;;;;;;;;4976078;28;19922;-79
2023/11/22 00:10:08;;;;;;;;;;;;;;;;;;4970764;28;19915;-79
2023/11/22 00:12:37;;;;;;;;;;;;;;;;;;4964221;28;20005;-78
2023/11/22 00:15:04;;;;;;;;;;;;;;;;;;4974451;28;19918;-79
2023/11/22 00:17:29;;;;;;;;;;;;;;;;;;4991781;28;19925;-79
2023/11/22 00:20:02;;;;;;;;;;;;;;;;;;4991266;28;19918;-79
2023/11/22 00:22:32;;;;;;;;;;;;;;;;;;4977430;28;19915;-79
2023/11/22 00:24:57;;;;;;;;;;;;;;;;;;4977081;28;19914;-79
2023/11/22 00:27:23;;;;;;;;;;;;;;;;;;4975909;28;19914;-79
2023/11/22 00:29:52;;;;;;;;;;;;;;;;;;4977039;28;20008;-77
2023/11/22 00:32:18;;;;;;;;;;;;;;;;;;4962809;28;20021;-78
2023/11/22 00:34:44;;;;;;;;;;;;;;;;;;4975852;28;20008;-79
2023/11/22 00:37:11;;;;;;;;;;;;;;;;;;4982043;28;19930;-79
2023/11/22 00:39:48;;;;;;;;;;;;;;;;;;4993130;28;19921;-79
2023/11/22 00:42:13;;;;;;;;;;;;;;;;;;4977151;28;19902;-79
2023/11/22 00:44:39;;;;;;;;;;;;;;;;;;4981306;28;19921;-78
2023/11/22 00:47:06;;;;;;;;;;;;;;;;;;4923687;29;19914;-79
2023/11/22 00:49:32;;;;;;;;;;;;;;;;;;4971347;28;19953;-79
2023/11/22 00:51:58;;;;;;;;;;;;;;;;;;4955038;28;19914;-79
2023/11/22 00:54:25;;;;;;;;;;;;;;;;;;4962210;28;19918;-79
2023/11/22 00:56:55;;;;;;;;;;;;;;;;;;4975609;28;19921;-79
2023/11/22 00:59:22;;;;;;;;;;;;;;;;;;4961466;28;19914;-78
2023/11/22 01:01:57;;;;;;;;;;;;;;;;;;4961931;28;20377;-79
2023/11/22 01:04:23;;;;;;;;;;;;;;;;;;4957899;28;19921;-79
2023/11/22 01:06:52;;;;;;;;;;;;;;;;;;4962906;28;20258;-79
2023/11/22 01:09:19;;;;;;;;;;;;;;;;;;4936417;28;19918;-79
2023/11/22 01:11:51;;;;;;;;;;;;;;;;;;4956898;28;19914;-80
2023/11/22 01:14:23;;;;;;;;;;;;;;;;;;4971587;28;19918;-79
2023/11/22 01:16:48;;;;;;;;;;;;;;;;;;4989356;28;20377;-78
2023/11/22 01:19:15;;;;;;;;;;;;;;;;;;4974186;28;20004;-79
2023/11/22 01:21:41;;;;;;;;;;;;;;;;;;4981229;28;19918;-78
2023/11/22 01:24:07;;;;;;;;;;;;;;;;;;4976744;28;19921;-78
2023/11/22 01:26:32;;;;;;;;;;;;;;;;;;4970006;28;20298;-79
2023/11/22 01:29:00;;;;;;;;;;;;;;;;;;4964103;28;19915;-79
2023/11/22 01:31:28;;;;;;;;;;;;;;;;;;4970994;28;19921;-78
2023/11/22 01:33:54;;;;;;;;;;;;;;;;;;4941879;28;19917;-78
2023/11/22 01:36:21;;;;;;;;;;;;;;;;;;4968315;28;19922;-78
2023/11/22 01:38:47;;;;;;;;;;;;;;;;;;4948075;28;19914;-79
2023/11/22 01:41:15;;;;;;;;;;;;;;;;;;4959707;28;19914;-79
2023/11/22 01:43:41;;;;;;;;;;;;;;;;;;4938802;28;19918;-79
2023/11/22 01:46:06;;;;;;;;;;;;;;;;;;4970090;28;20389;-79
2023/11/22 01:48:33;;;;;;;;;;;;;;;;;;4962949;28;20377;-78
2023/11/22 01:50:58;;;;;;;;;;;;;;;;;;4957609;28;19921;-79
2023/11/22 01:53:30;;;;;;;;;;;;;;;;;;4988653;28;19965;-78
2023/11/22 01:55:57;;;;;;;;;;;;;;;;;;4974902;28;20313;-79
2023/11/22 01:58:24;;;;;;;;;;;;;;;;;;4950538;28;19997;-78
2023/11/22 02:00:56;;;;;;;;;;;;;;;;;;4964529;28;19915;-79
2023/11/22 02:03:25;;;;;;;;;;;;;;;;;;4974697;28;20445;-78
2023/11/22 02:05:50;;;;;;;;;;;;;;;;;;4958709;28;20020;-78
2023/11/22 02:08:18;;;;;;;;;;;;;;;;;;4969580;28;20378;-79
2023/11/22 02:10:44;;;;;;;;;;;;;;;;;;4956502;28;19915;-78
2023/11/22 02:13:13;;;;;;;;;;;;;;;;;;4937872;29;19922;-78
2023/11/22 02:15:42;;;;;;;;;;;;;;;;;;4972964;28;19914;-79
2023/11/22 02:18:08;;;;;;;;;;;;;;;;;;4992857;28;20017;-78
2023/11/22 02:20:34;;;;;;;;;;;;;;;;;;4978060;28;19914;-77
2023/11/22 02:22:59;;;;;;;;;;;;;;;;;;4976491;28;19918;-77
2023/11/22 02:25:26;;;;;;;;;;;;;;;;;;4977680;28;20393;-78
2023/11/22 02:27:51;;;;;;;;;;;;;;;;;;4974309;28;20008;-79
2023/11/22 02:30:17;;;;;;;;;;;;;;;;;;4943727;28;20114;-79
2023/11/22 02:32:43;;;;;;;;;;;;;;;;;;4976187;28;20374;-79
2023/11/22 02:35:10;;;;;;;;;;;;;;;;;;4947940;28;19919;-79
2023/11/22 02:37:36;;;;;;;;;;;;;;;;;;4973408;28;19914;-79
2023/11/22 02:40:04;;;;;;;;;;;;;;;;;;4972117;28;19922;-79
2023/11/22 02:42:34;;;;;;;;;;;;;;;;;;4949537;28;19974;-80
2023/11/22 02:45:00;;;;;;;;;;;;;;;;;;4965921;28;20356;-78
2023/11/22 02:47:25;;;;;;;;;;;;;;;;;;4972526;28;20009;-79
2023/11/22 02:49:57;;;;;;;;;;;;;;;;;;4975290;28;20370;-78
2023/11/22 02:52:24;;;;;;;;;;;;;;;;;;4992562;28;20322;-78
2023/11/22 02:54:49;;;;;;;;;;;;;;;;;;4992296;28;19918;-79
2023/11/22 02:57:19;;;;;;;;;;;;;;;;;;4961064;28;19910;-78
2023/11/22 02:59:45;;;;;;;;;;;;;;;;;;4979965;28;19914;-78
2023/11/22 03:02:11;;;;;;;;;;;;;;;;;;4986945;28;19933;-78
2023/11/22 03:04:40;;;;;;;;;;;;;;;;;;4998223;28;19918;-77
2023/11/22 03:07:08;;;;;;;;;;;;;;;;;;4990716;28;19914;-78
2023/11/22 03:09:40;;;;;;;;;;;;;;;;;;4965846;28;19914;-79
2023/11/22 03:12:13;;;;;;;;;;;;;;;;;;4992025;28;19945;-78
2023/11/22 03:14:38;;;;;;;;;;;;;;;;;;4985370;28;19986;-78
2023/11/22 03:17:04;;;;;;;;;;;;;;;;;;4986768;28;19910;-79
2023/11/22 03:19:38;;;;;;;;;;;;;;;;;;4978728;28;19921;-79
2023/11/22 03:22:06;;;;;;;;;;;;;;;;;;5015795;28;19923;-78
2023/11/22 03:24:34;;;;;;;;;;;;;;;;;;4999239;28;19898;-78
2023/11/22 03:27:00;;;;;;;;;;;;;;;;;;4999890;28;19906;-78
2023/11/22 03:29:26;;;;;;;;;;;;;;;;;;5016184;28;19945;-79
2023/11/22 03:31:51;;;;;;;;;;;;;;;;;;4999219;28;19899;-78
2023/11/22 03:34:18;;;;;;;;;;;;;;;;;;4978505;28;19969;-77
2023/11/22 03:36:43;;;;;;;;;;;;;;;;;;4965513;28;20369;-79
2023/11/22 03:39:10;;;;;;;;;;;;;;;;;;4963835;28;19919;-79
2023/11/22 03:41:37;;;;;;;;;;;;;;;;;;4971391;28;19957;-79
2023/11/22 03:44:08;;;;;;;;;;;;;;;;;;4960412;28;20446;-79
2023/11/22 03:46:34;;;;;;;;;;;;;;;;;;4975951;28;19957;-79
2023/11/22 03:49:02;;;;;;;;;;;;;;;;;;4964250;28;19993;-78
2023/11/22 03:51:28;;;;;;;;;;;;;;;;;;4970611;28;20013;-78
2023/11/22 03:53:53;;;;;;;;;;;;;;;;;;4963231;28;19917;-79
2023/11/22 03:56:19;;;;;;;;;;;;;;;;;;4992889;28;19972;-79
2023/11/22 03:58:44;;;;;;;;;;;;;;;;;;4976901;28;19953;-79
2023/11/22 04:01:10;;;;;;;;;;;;;;;;;;4994899;28;19918;-79
2023/11/22 04:03:35;;;;;;;;;;;;;;;;;;4979947;28;19946;-79
2023/11/22 04:06:01;;;;;;;;;;;;;;;;;;4973621;28;19918;-79
2023/11/22 04:08:26;;;;;;;;;;;;;;;;;;4956598;29;19918;-80
2023/11/22 04:10:57;;;;;;;;;;;;;;;;;;4951572;28;19921;-79
2023/11/22 04:13:26;;;;;;;;;;;;;;;;;;4962667;28;19918;-79
2023/11/22 04:15:51;;;;;;;;;;;;;;;;;;4970402;28;20281;-79
2023/11/22 04:18:20;;;;;;;;;;;;;;;;;;4956612;28;19957;-79
2023/11/22 04:20:47;;;;;;;;;;;;;;;;;;4974523;28;19921;-79
2023/11/22 04:23:14;;;;;;;;;;;;;;;;;;4974452;28;19914;-79
2023/11/22 04:25:41;;;;;;;;;;;;;;;;;;4960017;28;19973;-79
2023/11/22 04:28:08;;;;;;;;;;;;;;;;;;4974547;28;19934;-79
2023/11/22 04:30:33;;;;;;;;;;;;;;;;;;4966685;28;19961;-79
2023/11/22 04:32:59;;;;;;;;;;;;;;;;;;5031542;23;19933;-73
2023/11/22 04:35:27;;;;;;;;;;;;;;;;;;4983423;28;19929;-72
2023/11/22 04:37:53;;;;;;;;;;;;;;;;;;5000297;28;19919;-72
2023/11/22 04:40:18;;;;;;;;;;;;;;;;;;4994131;28;19924;-72
2023/11/22 04:42:44;;;;;;;;;;;;;;;;;;4979688;28;19914;-73
2023/11/22 04:45:09;;;;;;;;;;;;;;;;;;4960468;28;19914;-72
2023/11/22 04:47:35;;;;;;;;;;;;;;;;;;4962143;28;20418;-73
2023/11/22 04:50:00;;;;;;;;;;;;;;;;;;4961969;28;19922;-72
2023/11/22 04:52:26;;;;;;;;;;;;;;;;;;4976692;28;19921;-72
2023/11/22 04:54:51;;;;;;;;;;;;;;;;;;4975252;28;19918;-72
2023/11/22 04:57:16;;;;;;;;;;;;;;;;;;4976192;28;20459;-72
2023/11/22 04:59:42;;;;;;;;;;;;;;;;;;4976578;28;19918;-71
2023/11/22 05:02:07;;;;;;;;;;;;;;;;;;4976077;28;20016;-72
2023/11/22 05:04:33;;;;;;;;;;;;;;;;;;4948739;28;19936;-73
2023/11/22 05:06:58;;;;;;;;;;;;;;;;;;4969280;28;19915;-72
2023/11/22 05:09:25;;;;;;;;;;;;;;;;;;4991266;28;19969;-73
2023/11/22 05:11:52;;;;;;;;;;;;;;;;;;4996232;28;20435;-72
2023/11/22 05:14:17;;;;;;;;;;;;;;;;;;4991801;28;19974;-72
2023/11/22 05:16:43;;;;;;;;;;;;;;;;;;4991748;28;19917;-73
2023/11/22 05:19:08;;;;;;;;;;;;;;;;;;4979211;28;20300;-73
2023/11/22 05:21:33;;;;;;;;;;;;;;;;;;4994190;28;20383;-72
2023/11/22 05:23:59;;;;;;;;;;;;;;;;;;4992396;28;19922;-72
2023/11/22 05:26:24;;;;;;;;;;;;;;;;;;4978393;28;20408;-73
2023/11/22 05:28:50;;;;;;;;;;;;;;;;;;4954785;28;19910;-73
2023/11/22 05:31:16;;;;;;;;;;;;;;;;;;4969946;28;19914;-73
2023/11/22 05:33:41;;;;;;;;;;;;;;;;;;4986778;28;19949;-72
2023/11/22 05:36:08;;;;;;;;;;;;;;;;;;4978644;28;20423;-72
2023/11/22 05:38:37;;;;;;;;;;;;;;;;;;4991566;28;19949;-72
2023/11/22 05:41:02;;;;;;;;;;;;;;;;;;4993373;28;19948;-73
2023/11/22 05:43:28;;;;;;;;;;;;;;;;;;4967726;28;19969;-72
2023/11/22 05:45:53;;;;;;;;;;;;;;;;;;4974100;29;19914;-72
2023/11/22 05:48:19;;;;;;;;;;;;;;;;;;4966611;28;19898;-73
2023/11/22 05:50:45;;;;;;;;;;;;;;;;;;4995287;28;19925;-72
2023/11/22 05:53:11;;;;;;;;;;;;;;;;;;4965709;28;20293;-72
2023/11/22 05:55:37;;;;;;;;;;;;;;;;;;4993113;28;19924;-72
2023/11/22 05:58:03;;;;;;;;;;;;;;;;;;4995596;28;19910;-74
2023/11/22 06:00:28;;;;;;;;;;;;;;;;;;4987594;28;19914;-72
2023/11/22 06:02:55;;;;;;;;;;;;;;;;;;4988477;28;19914;-72
2023/11/22 06:05:20;;;;;;;;;;;;;;;;;;4961908;29;19915;-73
2023/11/22 06:07:47;;;;;;;;;;;;;;;;;;4969018;28;19910;-72
2023/11/22 06:10:14;;;;;;;;;;;;;;;;;;4967135;29;19922;-72
2023/11/22 06:12:39;;;;;;;;;;;;;;;;;;4971437;28;19914;-73
2023/11/22 06:15:05;;;;;;;;;;;;;;;;;;4979153;28;19920;-73
2023/11/22 06:17:31;;;;;;;;;;;;;;;;;;4994062;28;19943;-74
2023/11/22 06:19:56;;;;;;;;;;;;;;;;;;4985409;28;19915;-73
2023/11/22 06:22:22;;;;;;;;;;;;;;;;;;4947632;28;19914;-74
2023/11/22 06:24:47;;;;;;;;;;;;;;;;;;4982136;28;19914;-73
2023/11/22 06:27:13;;;;;;;;;;;;;;;;;;4988444;28;19922;-73
2023/11/22 06:29:38;;;;;;;;;;;;;;;;;;4977833;28;19914;-72
2023/11/22 06:32:06;;;;;;;;;;;;;;;;;;4988672;28;20400;-72
2023/11/22 06:34:32;;;;;;;;;;;;;;;;;;4968651;28;19923;-73
2023/11/22 06:36:57;;;;;;;;;;;;;;;;;;4970808;28;19918;-72
2023/11/22 06:39:25;;;;;;;;;;;;;;;;;;4993252;28;19910;-74
2023/11/22 06:41:50;;;;;;;;;;;;;;;;;;4977548;28;19974;-73
2023/11/22 06:44:16;;;;;;;;;;;;;;;;;;4988425;28;19914;-73
2023/11/22 06:46:46;;;;;;;;;;;;;;;;;;4982264;28;19922;-74
2023/11/22 06:49:11;;;;;;;;;;;;;;;;;;4990135;28;19968;-73
2023/11/22 06:51:37;;;;;;;;;;;;;;;;;;4987872;28;19929;-72
2023/11/22 06:54:02;;;;;;;;;;;;;;;;;;4960976;28;19920;-73
2023/11/22 06:56:28;;;;;;;;;;;;;;;;;;4976642;28;20369;-73
2023/11/22 06:58:54;;;;;;;;;;;;;;;;;;5007404;28;19915;-73
2023/11/22 07:01:20;;;;;;;;;;;;;;;;;;5006935;28;19910;-73
2023/11/22 07:03:46;;;;;;;;;;;;;;;;;;4990823;28;19938;-73
2023/11/22 07:06:14;;;;;;;;;;;;;;;;;;4968554;28;19915;-73
2023/11/22 07:08:40;;;;;;;;;;;;;;;;;;4979424;28;19919;-73
2023/11/22 07:11:09;;;;;;;;;;;;;;;;;;4992384;28;19914;-72
2023/11/22 07:13:36;;;;;;;;;;;;;;;;;;4976663;28;19914;-72
2023/11/22 07:16:04;;;;;;;;;;;;;;;;;;4971283;29;19914;-73
2023/11/22 07:18:33;;;;;;;;;;;;;;;;;;4959397;28;19917;-73
2023/11/22 07:20:59;;;;;;;;;;;;;;;;;;4972125;28;19918;-73
2023/11/22 07:23:28;;;;;;;;;;;;;;;;;;4979666;28;19945;-73
2023/11/22 07:25:55;;;;;;;;;;;;;;;;;;4987008;28;19914;-73
2023/11/22 07:28:22;;;;;;;;;;;;;;;;;;4987634;28;19910;-73
2023/11/22 07:30:48;;;;;;;;;;;;;;;;;;4977594;28;19926;-74
2023/11/22 07:33:20;;;;;;;;;;;;;;;;;;4952837;29;19946;-73
2023/11/22 07:35:48;;;;;;;;;;;;;;;;;;4962398;28;19929;-72
2023/11/22 07:38:14;;;;;;;;;;;;;;;;;;4967981;28;19911;-73
2023/11/22 07:40:42;;;;;;;;;;;;;;;;;;4953585;29;19914;-72
2023/11/22 07:43:10;;;;;;;;;;;;;;;;;;4956688;28;19921;-72
2023/11/22 07:45:50;;;;;;;;;;;;;;;;;;4964863;28;19918;-73
2023/11/22 07:48:22;;;;;;;;;;;;;;;;;;4948800;28;19918;-72
2023/11/22 07:50:49;;;;;;;;;;;;;;;;;;4972001;28;19918;-74
2023/11/22 07:53:21;;;;;;;;;;;;;;;;;;4976715;28;19910;-72
2023/11/22 07:55:48;;;;;;;;;;;;;;;;;;4979230;28;20304;-73
2023/11/22 07:58:17;;;;;;;;;;;;;;;;;;4980747;28;20008;-72
2023/11/22 08:00:45;;;;;;;;;;;;;;;;;;4980965;28;19929;-74
2023/11/22 08:03:15;;;;;;;;;;;;;;;;;;4945001;28;20425;-75
2023/11/22 08:05:41;;;;;;;;;;;;;;;;;;4976980;28;20009;-73
2023/11/22 08:08:07;;;;;;;;;;;;;;;;;;4974183;28;19949;-73
2023/11/22 08:10:34;;;;;;;;;;;;;;;;;;4956939;28;19930;-74
2023/11/22 08:13:00;;;;;;;;;;;;;;;;;;4962504;28;19918;-74
2023/11/22 08:15:26;;;;;;;;;;;;;;;;;;4978628;28;19981;-73
2023/11/22 08:17:51;;;;;;;;;;;;;;;;;;4978185;28;20397;-73
2023/11/22 08:20:35;;;;;;;;;;;;;;;;;;4961635;28;19922;-73
2023/11/22 08:23:00;;;;;;;;;;;;;;;;;;4966956;28;19914;-74
2023/11/22 08:25:26;;;;;;;;;;;;;;;;;;4955571;28;19980;-72
2023/11/22 08:27:51;;;;;;;;;;;;;;;;;;4978995;28;19914;-73
2023/11/22 08:30:17;;;;;;;;;;;;;;;;;;4962336;28;19972;-72
2023/11/22 08:32:55;;;;;;;;;;;;;;;;;;5102515;27;19952;-72
2023/11/22 08:35:23;;;;;;;;;;;;;;;;;;5074679;28;19913;-72
2023/11/22 08:37:51;;;;;;;;;;;;;;;;;;5068582;28;19921;-73
2023/11/22 08:40:20;;;;;;;;;;;;;;;;;;5079334;28;19909;-74
2023/11/22 08:42:45;;;;;;;;;;;;;;;;;;5060541;28;19920;-73
2023/11/22 08:45:11;;;;;;;;;;;;;;;;;;5079308;28;19913;-74
2023/11/22 08:47:37;;;;;;;;;;;;;;;;;;5065731;28;19920;-74
2023/11/22 08:50:05;;;;;;;;;;;;;;;;;;5083889;28;20288;-73
2023/11/22 08:52:31;;;;;;;;;;;;;;;;;;5068630;28;19921;-79
2023/11/22 08:54:57;;;;;;;;;;;;;;;;;;5028524;28;19917;-80
2023/11/22 08:57:23;;;;;;;;;;;;;;;;;;5011499;28;19980;-79
2023/11/22 08:59:51;;;;;;;;;;;;;;;;;;5085993;28;19935;-79
2023/11/22 09:02:22;;;;;;;;;;;;;;;;;;5085689;28;19908;-79
2023/11/22 09:04:47;;;;;;;;;;;;;;;;;;5085840;28;19947;-74
2023/11/22 09:07:14;;;;;;;;;;;;;;;;;;5085857;28;19913;-73
2023/11/22 09:09:41;;;;;;;;;;;;;;;;;;5067384;28;19909;-73
2023/11/22 09:12:12;;;;;;;;;;;;;;;;;;5065798;28;19917;-73
2023/11/22 09:14:37;;;;;;;;;;;;;;;;;;5060743;28;19935;-72
2023/11/22 09:17:05;;;;;;;;;;;;;;;;;;5086477;28;19952;-72
2023/11/22 09:19:30;;;;;;;;;;;;;;;;;;5086051;28;19935;-73
2023/11/22 09:21:55;;;;;;;;;;;;;;;;;;5069676;28;19916;-73
2023/11/22 09:24:21;;;;;;;;;;;;;;;;;;5069910;28;19913;-73
2023/11/22 09:26:46;;;;;;;;;;;;;;;;;;5074393;28;19917;-72
2023/11/22 09:29:14;;;;;;;;;;;;;;;;;;5030655;28;19980;-73
2023/11/22 09:31:39;;;;;;;;;;;;;;;;;;5056960;28;19942;-73
2023/11/22 09:34:04;;;;;;;;;;;;;;;;;;5085805;28;19909;-73
2023/11/22 09:36:33;;;;;;;;;;;;;;;;;;5085964;28;19912;-74
2023/11/22 09:38:59;;;;;;;;;;;;;;;;;;5070808;28;19945;-73
2023/11/22 09:41:27;;;;;;;;;;;;;;;;;;5103402;28;19909;-73
2023/11/22 09:43:52;;;;;;;;;;;;;;;;;;5064756;28;19920;-73
2023/11/22 09:46:20;;;;;;;;;;;;;;;;;;5062338;28;19913;-74
2023/11/22 09:48:48;;;;;;;;;;;;;;;;;;5028759;28;19931;-73
2023/11/22 09:51:17;;;;;;;;;;;;;;;;;;5063625;28;19948;-73
2023/11/22 09:53:42;;;;;;;;;;;;;;;;;;5064010;28;19913;-73
2023/11/22 09:56:09;;;;;;;;;;;;;;;;;;5059176;28;20444;-73
2023/11/22 09:58:34;;;;;;;;;;;;;;;;;;5041385;28;19917;-73
2023/11/22 10:01:00;;;;;;;;;;;;;;;;;;5058477;28;19913;-72
2023/11/22 10:03:31;;;;;;;;;;;;;;;;;;5058986;28;19913;-72
2023/11/22 10:05:57;;;;;;;;;;;;;;;;;;5057362;28;19932;-73
2023/11/22 10:08:22;;;;;;;;;;;;;;;;;;5040659;28;19908;-72
2023/11/22 10:10:51;;;;;;;;;;;;;;;;;;5057445;28;19917;-72
2023/11/22 10:13:16;;;;;;;;;;;;;;;;;;5037897;28;20004;-75
2023/11/22 10:15:42;;;;;;;;;;;;;;;;;;5036213;28;19939;-72
2023/11/22 10:18:10;;;;;;;;;;;;;;;;;;5057354;28;19913;-73
2023/11/22 10:20:36;;;;;;;;;;;;;;;;;;5058709;28;19920;-73
2023/11/22 10:23:02;;;;;;;;;;;;;;;;;;5045215;28;19992;-73
2023/11/22 10:25:32;;;;;;;;;;;;;;;;;;5051779;28;20391;-72
2023/11/22 10:27:58;;;;;;;;;;;;;;;;;;5056139;28;19919;-72
2023/11/22 10:30:24;;;;;;;;;;;;;;;;;;5056162;28;20372;-72
2023/11/22 10:32:50;;;;;;;;;;;;;;;;;;5057126;28;20008;-72
2023/11/22 10:35:22;;;;;;;;;;;;;;;;;;5055958;28;19944;-72
2023/11/22 10:37:47;;;;;;;;;;;;;;;;;;5039252;28;20292;-72
2023/11/22 10:40:13;;;;;;;;;;;;;;;;;;5056173;28;19920;-75
2023/11/22 10:42:38;;;;;;;;;;;;;;;;;;5015837;28;20299;-73
2023/11/22 10:45:07;;;;;;;;;;;;;;;;;;5044273;28;19924;-73
2023/11/22 10:47:32;;;;;;;;;;;;;;;;;;5056320;28;19919;-72
2023/11/22 10:50:01;;;;;;;;;;;;;;;;;;5041413;28;19909;-72
2023/11/22 10:52:26;;;;;;;;;;;;;;;;;;5056636;28;20422;-72
2023/11/22 10:54:52;;;;;;;;;;;;;;;;;;5033380;28;19914;-73
2023/11/22 10:57:17;;;;;;;;;;;;;;;;;;5048557;28;19913;-72
2023/11/22 10:59:43;;;;;;;;;;;;;;;;;;5040373;28;20315;-72
2023/11/22 11:02:08;;;;;;;;;;;;;;;;;;5022909;28;19913;-73
2023/11/22 11:04:37;;;;;;;;;;;;;;;;;;5056829;28;19916;-75
2023/11/22 11:07:03;;;;;;;;;;;;;;;;;;5039355;28;19913;-73
2023/11/22 11:09:32;;;;;;;;;;;;;;;;;;5056467;28;19935;-72
2023/11/22 11:11:57;;;;;;;;;;;;;;;;;;5056552;28;19920;-73
2023/11/22 11:14:23;;;;;;;;;;;;;;;;;;5037660;28;20307;-73
2023/11/22 11:16:49;;;;;;;;;;;;;;;;;;5054901;28;19944;-75
2023/11/22 11:19:15;;;;;;;;;;;;;;;;;;5037110;28;19924;-73
2023/11/22 11:21:40;;;;;;;;;;;;;;;;;;5036747;28;19912;-75
2023/11/22 11:24:05;;;;;;;;;;;;;;;;;;5015910;28;19920;-73
2023/11/22 11:26:34;;;;;;;;;;;;;;;;;;5035065;28;20272;-73
2023/11/22 11:28:59;;;;;;;;;;;;;;;;;;5052260;28;19935;-74
2023/11/22 11:31:25;;;;;;;;;;;;;;;;;;5085407;28;19917;-73
2023/11/22 11:33:52;;;;;;;;;;;;;;;;;;5089707;28;19916;-73
2023/11/22 11:36:17;;;;;;;;;;;;;;;;;;5059610;28;20300;-73
2023/11/22 11:38:43;;;;;;;;;;;;;;;;;;5056646;28;19917;-75
2023/11/22 11:41:09;;;;;;;;;;;;;;;;;;5057296;28;19941;-74
2023/11/22 11:43:37;;;;;;;;;;;;;;;;;;5059407;28;19939;-73
2023/11/22 11:46:02;;;;;;;;;;;;;;;;;;5060132;28;19968;-73
2023/11/22 11:48:27;;;;;;;;;;;;;;;;;;5042818;28;20280;-73
2023/11/22 11:50:53;;;;;;;;;;;;;;;;;;5041275;28;19948;-73
2023/11/22 11:53:18;;;;;;;;;;;;;;;;;;5056629;28;20248;-74
2023/11/22 11:55:45;;;;;;;;;;;;;;;;;;5056682;28;19916;-74
2023/11/22 11:58:11;;;;;;;;;;;;;;;;;;5039551;28;19967;-74
2023/11/22 12:00:40;;;;;;;;;;;;;;;;;;5056750;28;19913;-74
2023/11/22 12:03:06;;;;;;;;;;;;;;;;;;5041280;28;20326;-74
2023/11/22 12:05:31;;;;;;;;;;;;;;;;;;5057816;28;19983;-74
2023/11/22 12:07:57;;;;;;;;;;;;;;;;;;5060633;28;20560;-73
2023/11/22 12:10:24;;;;;;;;;;;;;;;;;;5061245;28;19908;-74
2023/11/22 12:12:49;;;;;;;;;;;;;;;;;;5044459;28;19923;-74
2023/11/22 12:15:17;;;;;;;;;;;;;;;;;;5057974;28;19956;-74
2023/11/22 12:17:42;;;;;;;;;;;;;;;;;;5041235;28;20261;-74
2023/11/22 12:20:11;;;;;;;;;;;;;;;;;;5059867;28;19913;-73
2023/11/22 12:22:36;;;;;;;;;;;;;;;;;;5043538;28;20360;-72
2023/11/22 12:25:02;;;;;;;;;;;;;;;;;;5017018;28;19960;-73
2023/11/22 12:27:28;;;;;;;;;;;;;;;;;;5049018;28;19908;-73
2023/11/22 12:29:54;;;;;;;;;;;;;;;;;;5056287;28;19959;-74
2023/11/22 12:32:20;;;;;;;;;;;;;;;;;;5022451;28;19917;-73
2023/11/22 12:34:45;;;;;;;;;;;;;;;;;;5040840;28;19920;-73
2023/11/22 12:37:11;;;;;;;;;;;;;;;;;;5026554;28;19913;-74
2023/11/22 12:39:36;;;;;;;;;;;;;;;;;;5059790;28;19924;-73
2023/11/22 12:42:02;;;;;;;;;;;;;;;;;;5045107;28;20087;-75
2023/11/22 12:44:32;;;;;;;;;;;;;;;;;;5048857;28;20015;-74
2023/11/22 12:46:59;;;;;;;;;;;;;;;;;;5047773;28;19932;-74
2023/11/22 12:49:25;;;;;;;;;;;;;;;;;;5063245;28;19913;-74
2023/11/22 12:51:51;;;;;;;;;;;;;;;;;;5066822;28;19932;-74
2023/11/22 12:54:16;;;;;;;;;;;;;;;;;;5047526;28;19909;-74
2023/11/22 12:56:42;;;;;;;;;;;;;;;;;;5052320;28;19917;-74
2023/11/22 12:59:08;;;;;;;;;;;;;;;;;;5061225;28;19913;-74
2023/11/22 13:01:34;;;;;;;;;;;;;;;;;;5029706;28;19920;-73
2023/11/22 13:04:00;;;;;;;;;;;;;;;;;;5052512;28;19936;-74
2023/11/22 13:06:26;;;;;;;;;;;;;;;;;;5066913;28;19913;-73
2023/11/22 13:08:55;;;;;;;;;;;;;;;;;;5043313;28;19939;-75
2023/11/22 13:11:21;;;;;;;;;;;;;;;;;;5019971;28;20012;-74
2023/11/22 13:13:47;;;;;;;;;;;;;;;;;;5059848;28;19913;-73
2023/11/22 13:16:16;;;;;;;;;;;;;;;;;;5047475;28;19917;-74
2023/11/22 13:18:41;;;;;;;;;;;;;;;;;;5062655;28;19913;-74
2023/11/22 13:21:07;;;;;;;;;;;;;;;;;;5062016;28;19913;-74
2023/11/22 13:23:35;;;;;;;;;;;;;;;;;;5056749;28;20327;-73
2023/11/22 13:26:01;;;;;;;;;;;;;;;;;;5048423;28;19963;-74
2023/11/22 13:28:30;;;;;;;;;;;;;;;;;;5062484;28;19913;-73
2023/11/22 13:30:55;;;;;;;;;;;;;;;;;;5045338;28;19917;-74
2023/11/22 13:33:21;;;;;;;;;;;;;;;;;;5062254;28;19919;-74
2023/11/22 13:35:47;;;;;;;;;;;;;;;;;;5061005;28;19913;-73
2023/11/22 13:38:12;;;;;;;;;;;;;;;;;;5061260;28;19994;-73
2023/11/22 13:40:45;;;;;;;;;;;;;;;;;;5061227;28;20366;-74
2023/11/22 13:43:12;;;;;;;;;;;;;;;;;;5060468;28;19919;-73
2023/11/22 13:45:40;;;;;;;;;;;;;;;;;;5059206;28;19951;-73
2023/11/22 13:48:09;;;;;;;;;;;;;;;;;;5059553;28;19976;-74
2023/11/22 13:50:34;;;;;;;;;;;;;;;;;;5041442;28;19962;-73
2023/11/22 13:53:00;;;;;;;;;;;;;;;;;;5042257;28;20363;-73
2023/11/22 13:55:25;;;;;;;;;;;;;;;;;;5053160;28;19921;-74
2023/11/22 13:57:51;;;;;;;;;;;;;;;;;;5059330;28;19913;-75
2023/11/22 14:00:22;;;;;;;;;;;;;;;;;;5061479;28;19909;-72
2023/11/22 14:02:47;;;;;;;;;;;;;;;;;;5060005;28;19913;-74
2023/11/22 14:05:15;;;;;;;;;;;;;;;;;;5061557;28;19917;-74
2023/11/22 14:07:40;;;;;;;;;;;;;;;;;;5043448;28;19940;-73
2023/11/22 14:10:06;;;;;;;;;;;;;;;;;;5043930;28;19909;-72
2023/11/22 14:12:32;;;;;;;;;;;;;;;;;;5060697;28;20022;-73
2023/11/22 14:14:57;;;;;;;;;;;;;;;;;;5043651;28;19976;-74
2023/11/22 14:17:23;;;;;;;;;;;;;;;;;;5060372;28;19913;-74
2023/11/22 14:19:49;;;;;;;;;;;;;;;;;;5059865;28;19959;-75
2023/11/22 14:22:17;;;;;;;;;;;;;;;;;;5059637;28;19967;-74
2023/11/22 14:24:44;;;;;;;;;;;;;;;;;;5060690;28;20015;-74
2023/11/22 14:27:10;;;;;;;;;;;;;;;;;;5048578;28;19920;-75
2023/11/22 14:29:36;;;;;;;;;;;;;;;;;;5044966;28;19917;-74
2023/11/22 14:32:01;;;;;;;;;;;;;;;;;;5064534;28;19917;-74
2023/11/22 14:34:27;;;;;;;;;;;;;;;;;;5064251;28;19921;-74
2023/11/22 14:36:53;;;;;;;;;;;;;;;;;;5045623;28;19956;-74
2023/11/22 14:39:18;;;;;;;;;;;;;;;;;;5046570;28;19913;-74
2023/11/22 14:41:45;;;;;;;;;;;;;;;;;;5063100;28;19913;-74
2023/11/22 14:44:14;;;;;;;;;;;;;;;;;;5064729;28;20229;-73
2023/11/22 14:46:39;;;;;;;;;;;;;;;;;;5047732;28;19935;-73
2023/11/22 14:49:05;;;;;;;;;;;;;;;;;;5066186;28;19984;-74
2023/11/22 14:51:33;;;;;;;;;;;;;;;;;;5066715;28;19921;-73
2023/11/22 14:54:01;;;;;;;;;;;;;;;;;;5065694;28;19915;-73
2023/11/22 14:56:27;;;;;;;;;;;;;;;;;;5061338;28;19913;-74
2023/11/22 14:58:59;;;;;;;;;;;;;;;;;;5047923;28;19952;-73
2023/11/22 15:01:33;;;;;;;;;;;;;;;;;;5065794;28;20018;-74
2023/11/22 15:03:59;;;;;;;;;;;;;;;;;;5065788;28;19913;-73
2023/11/22 15:06:25;;;;;;;;;;;;;;;;;;5047747;28;19925;-73
2023/11/22 15:08:50;;;;;;;;;;;;;;;;;;5065690;28;19913;-73
2023/11/22 15:11:17;;;;;;;;;;;;;;;;;;5066615;28;19927;-73
2023/11/22 15:13:43;;;;;;;;;;;;;;;;;;5065787;28;20007;-74
2023/11/22 15:16:15;;;;;;;;;;;;;;;;;;5064988;28;19979;-73
2023/11/22 15:18:41;;;;;;;;;;;;;;;;;;5061697;28;19912;-74
2023/11/22 15:21:07;;;;;;;;;;;;;;;;;;5059225;28;19920;-74
2023/11/22 15:23:34;;;;;;;;;;;;;;;;;;5041205;28;19920;-73
2023/11/22 15:25:59;;;;;;;;;;;;;;;;;;5057423;28;20003;-73
2023/11/22 15:28:25;;;;;;;;;;;;;;;;;;5059112;28;19970;-73
2023/11/22 15:30:56;;;;;;;;;;;;;;;;;;5053497;28;19913;-74
2023/11/22 15:33:22;;;;;;;;;;;;;;;;;;5057705;28;19913;-73
2023/11/22 15:35:48;;;;;;;;;;;;;;;;;;5040695;28;19943;-74
2023/11/22 15:38:13;;;;;;;;;;;;;;;;;;5042314;28;19919;-74
2023/11/22 15:40:39;;;;;;;;;;;;;;;;;;5057054;28;19963;-72
2023/11/22 15:43:07;;;;;;;;;;;;;;;;;;5059920;28;19912;-73
2023/11/22 15:45:33;;;;;;;;;;;;;;;;;;5041544;28;19977;-74
2023/11/22 15:47:59;;;;;;;;;;;;;;;;;;5059447;28;19919;-73
2023/11/22 15:50:28;;;;;;;;;;;;;;;;;;5057305;28;19916;-73
2023/11/22 15:52:53;;;;;;;;;;;;;;;;;;5024854;28;19920;-73
2023/11/22 15:55:19;;;;;;;;;;;;;;;;;;5052981;28;19922;-73
2023/11/22 15:57:44;;;;;;;;;;;;;;;;;;5055376;28;20272;-73
2023/11/22 16:00:15;;;;;;;;;;;;;;;;;;5057894;28;19957;-73
2023/11/22 16:02:41;;;;;;;;;;;;;;;;;;5058337;28;19917;-73
2023/11/22 16:05:06;;;;;;;;;;;;;;;;;;5057841;28;20414;-73
2023/11/22 16:07:38;;;;;;;;;;;;;;;;;;5040332;28;19919;-74
2023/11/22 16:10:08;;;;;;;;;;;;;;;;;;5039526;28;19972;-73
2023/11/22 16:12:34;;;;;;;;;;;;;;;;;;5055695;28;19969;-74
2023/11/22 16:15:02;;;;;;;;;;;;;;;;;;5056351;28;20333;-75
2023/11/22 16:17:32;;;;;;;;;;;;;;;;;;5057567;28;20295;-73
2023/11/22 16:20:00;;;;;;;;;;;;;;;;;;5056408;28;20260;-73
2023/11/22 16:22:26;;;;;;;;;;;;;;;;;;5038433;28;20007;-73
2023/11/22 16:24:54;;;;;;;;;;;;;;;;;;5023069;28;19960;-73
2023/11/22 16:27:21;;;;;;;;;;;;;;;;;;5039372;28;20387;-74
2023/11/22 16:29:50;;;;;;;;;;;;;;;;;;5030210;28;19914;-73
2023/11/22 16:32:15;;;;;;;;;;;;;;;;;;5028420;28;19924;-74
2023/11/22 16:34:41;;;;;;;;;;;;;;;;;;5055379;28;19913;-74
2023/11/22 16:37:07;;;;;;;;;;;;;;;;;;5039892;28;19935;-73
2023/11/22 16:39:34;;;;;;;;;;;;;;;;;;5056288;28;19913;-74
2023/11/22 16:42:00;;;;;;;;;;;;;;;;;;5055548;28;19913;-73